Time;durP1;ratioP1;P1;durP2;ratioP2;P2;SDS_P1;SDS_P2;PMS_P1;PMS_P2;Temp;Humidity;BMP_temperature;BMP_pressure;BME280_temperature;BME280_humidity;BME280_pressure;Samples;Min_cycle;Max_cycle;Signal;HPM_P1;HPM_P2
2023/01/08 00:01:35;;;;;;;4.15;3.10;;;;;;;;;;5051891;28;20075;-67
2023/01/08 00:04:01;;;;;;;3.30;2.78;;;;;;;;;;5047679;28;20517;-67
2023/01/08 00:06:27;;;;;;;3.00;2.15;;;;;;;;;;5047505;28;20033;-68
2023/01/08 00:08:53;;;;;;;4.25;2.83;;;;;;;;;;5050373;28;20049;-67
2023/01/08 00:11:19;;;;;;;3.90;2.70;;;;;;;;;;5046780;28;20052;-67
2023/01/08 00:13:45;;;;;;;3.05;2.75;;;;;;;;;;5054671;28;20063;-67
2023/01/08 00:16:13;;;;;;;3.55;2.80;;;;;;;;;;5048430;28;20041;-67
2023/01/08 00:18:39;;;;;;;4.82;3.08;;;;;;;;;;5050220;28;20037;-67
2023/01/08 00:21:05;;;;;;;3.20;2.63;;;;;;;;;;5050194;28;20061;-67
2023/01/08 00:23:32;;;;;;;4.78;3.10;;;;;;;;;;5048140;28;20095;-67
2023/01/08 00:26:01;;;;;;;4.90;2.92;;;;;;;;;;5047582;28;20057;-67
2023/01/08 00:28:27;;;;;;;3.67;2.95;;;;;;;;;;5046006;28;20056;-67
2023/01/08 00:30:53;;;;;;;4.68;2.90;;;;;;;;;;5047515;28;20041;-67
2023/01/08 00:33:19;;;;;;;4.05;3.10;;;;;;;;;;5049563;28;20124;-67
2023/01/08 00:35:45;;;;;;;5.30;2.95;;;;;;;;;;5049647;28;20047;-67
2023/01/08 00:38:11;;;;;;;3.63;2.25;;;;;;;;;;5050435;28;20402;-67
2023/01/08 00:40:39;;;;;;;6.03;2.83;;;;;;;;;;5048004;28;20483;-67
2023/01/08 00:43:05;;;;;;;3.47;2.33;;;;;;;;;;5049557;28;20051;-67
2023/01/08 00:45:31;;;;;;;4.85;3.05;;;;;;;;;;5051286;28;20044;-67
2023/01/08 00:47:58;;;;;;;3.72;2.67;;;;;;;;;;5045771;28;20391;-67
2023/01/08 00:50:24;;;;;;;4.60;3.00;;;;;;;;;;5057285;28;20404;-67
2023/01/08 00:52:50;;;;;;;3.63;2.60;;;;;;;;;;5033625;28;20043;-67
2023/01/08 00:55:16;;;;;;;4.30;3.20;;;;;;;;;;5048126;28;20041;-67
2023/01/08 00:57:42;;;;;;;4.13;2.97;;;;;;;;;;5049310;28;20045;-67
2023/01/08 01:00:10;;;;;;;3.85;2.58;;;;;;;;;;5047217;28;20037;-67
2023/01/08 01:02:37;;;;;;;5.07;3.33;;;;;;;;;;5048556;28;20130;-67
2023/01/08 01:05:04;;;;;;;5.43;2.97;;;;;;;;;;5042637;28;20082;-67
2023/01/08 01:07:30;;;;;;;4.68;2.92;;;;;;;;;;5048169;28;20037;-67
2023/01/08 01:09:56;;;;;;;4.93;3.45;;;;;;;;;;5047921;28;20052;-68
2023/01/08 01:12:22;;;;;;;4.60;3.65;;;;;;;;;;5046937;28;20076;-67
2023/01/08 01:14:48;;;;;;;3.25;2.78;;;;;;;;;;5048962;28;20503;-68
2023/01/08 01:17:14;;;;;;;4.93;3.22;;;;;;;;;;5042897;28;20045;-67
2023/01/08 01:19:40;;;;;;;6.82;3.30;;;;;;;;;;5036707;28;20029;-67
2023/01/08 01:22:06;;;;;;;5.85;3.55;;;;;;;;;;5049492;28;20099;-67
2023/01/08 01:24:32;;;;;;;6.90;2.63;;;;;;;;;;5041647;28;20039;-68
2023/01/08 01:26:58;;;;;;;4.50;2.00;;;;;;;;;;5048130;28;20041;-67
2023/01/08 01:29:25;;;;;;;5.70;1.45;;;;;;;;;;5049322;28;20049;-68
2023/01/08 01:31:51;;;;;;;5.55;1.27;;;;;;;;;;5048149;28;20080;-67
2023/01/08 01:34:17;;;;;;;2.85;1.20;;;;;;;;;;5046025;28;20065;-67
2023/01/08 01:36:43;;;;;;;4.45;0.93;;;;;;;;;;5049898;28;20505;-68
2023/01/08 01:39:09;;;;;;;4.38;1.00;;;;;;;;;;5053151;28;20132;-68
2023/01/08 01:41:43;;;;;;;5.35;1.08;;;;;;;;;;5046761;28;20045;-68
2023/01/08 01:44:27;;;;;;;5.30;1.20;;;;;;;;;;5042732;28;20072;-67
2023/01/08 01:46:53;;;;;;;2.47;0.98;;;;;;;;;;5042598;28;20033;-68
2023/01/08 01:49:20;;;;;;;7.65;1.40;;;;;;;;;;5032496;28;20053;-68
2023/01/08 01:51:52;;;;;;;8.68;1.52;;;;;;;;;;5032237;28;20371;-68
2023/01/08 01:54:19;;;;;;;5.68;1.27;;;;;;;;;;5032713;28;20037;-67
2023/01/08 01:56:45;;;;;;;6.40;1.40;;;;;;;;;;5036386;28;20470;-67
2023/01/08 01:59:12;;;;;;;7.45;1.33;;;;;;;;;;5029202;28;20041;-67
2023/01/08 02:01:38;;;;;;;8.40;1.70;;;;;;;;;;5036832;28;20041;-67
2023/01/08 02:04:05;;;;;;;6.57;1.52;;;;;;;;;;5045915;28;20048;-67
2023/01/08 02:06:31;;;;;;;7.95;1.13;;;;;;;;;;5047949;28;20132;-67
2023/01/08 02:09:09;;;;;;;5.68;1.45;;;;;;;;;;5047029;28;20838;-67
2023/01/08 02:11:44;;;;;;;7.82;1.48;;;;;;;;;;5046725;28;20098;-67
2023/01/08 02:14:31;;;;;;;5.78;1.13;;;;;;;;;;5047980;28;20068;-67
2023/01/08 02:17:00;;;;;;;6.53;1.33;;;;;;;;;;5101164;22;20493;-64
2023/01/08 02:19:38;;;;;;;10.48;1.70;;;;;;;;;;5071985;28;20402;-64
2023/01/08 02:22:04;;;;;;;6.03;1.48;;;;;;;;;;5080209;28;20123;-63
2023/01/08 02:24:40;;;;;;;4.65;1.42;;;;;;;;;;5066403;28;20462;-64
2023/01/08 02:27:08;;;;;;;9.70;1.33;;;;;;;;;;5077287;28;20074;-63
2023/01/08 02:29:34;;;;;;;8.10;1.65;;;;;;;;;;5087561;28;20048;-64
2023/01/08 02:32:00;;;;;;;8.63;1.95;;;;;;;;;;5090554;28;20040;-63
2023/01/08 02:34:27;;;;;;;6.95;1.40;;;;;;;;;;5088685;28;20043;-63
2023/01/08 02:36:54;;;;;;;6.60;1.52;;;;;;;;;;5094473;28;20122;-64
2023/01/08 02:39:26;;;;;;;8.07;1.38;;;;;;;;;;5092853;28;20047;-64
2023/01/08 02:41:56;;;;;;;3.90;1.50;;;;;;;;;;5091550;28;20040;-64
2023/01/08 02:44:33;;;;;;;7.35;1.35;;;;;;;;;;5070610;28;20040;-64
2023/01/08 02:47:00;;;;;;;3.63;1.13;;;;;;;;;;5078404;28;20040;-64
2023/01/08 02:49:30;;;;;;;5.55;1.40;;;;;;;;;;5091398;28;20855;-64
2023/01/08 02:51:57;;;;;;;4.25;1.73;;;;;;;;;;5092169;28;20043;-64
2023/01/08 02:54:26;;;;;;;4.65;1.50;;;;;;;;;;5091863;28;20044;-64
2023/01/08 02:56:54;;;;;;;7.38;2.03;;;;;;;;;;5090347;28;20036;-64
2023/01/08 02:59:22;;;;;;;5.75;1.90;;;;;;;;;;5092121;28;20058;-64
2023/01/08 03:01:48;;;;;;;4.55;1.88;;;;;;;;;;5087973;28;20123;-64
2023/01/08 03:04:18;;;;;;;3.33;1.85;;;;;;;;;;5081802;28;20125;-64
2023/01/08 03:06:44;;;;;;;3.17;1.90;;;;;;;;;;5091005;28;20039;-64
2023/01/08 03:09:11;;;;;;;3.50;2.13;;;;;;;;;;5072139;28;20033;-64
2023/01/08 03:11:53;;;;;;;5.65;2.20;;;;;;;;;;5081969;28;20123;-64
2023/01/08 03:14:26;;;;;;;7.93;2.80;;;;;;;;;;5092161;28;20046;-64
2023/01/08 03:16:56;;;;;;;3.65;2.60;;;;;;;;;;5093468;28;20067;-64
2023/01/08 03:19:31;;;;;;;6.60;3.03;;;;;;;;;;5091189;28;20516;-64
2023/01/08 03:21:57;;;;;;;5.00;3.38;;;;;;;;;;5092361;28;20730;-64
2023/01/08 03:24:26;;;;;;;6.70;4.25;;;;;;;;;;5089894;28;20090;-64
2023/01/08 03:26:54;;;;;;;4.80;3.40;;;;;;;;;;5075516;28;20040;-64
2023/01/08 03:29:23;;;;;;;5.22;3.78;;;;;;;;;;5093306;28;20378;-64
2023/01/08 03:31:49;;;;;;;4.75;3.60;;;;;;;;;;5091456;28;20103;-63
2023/01/08 03:34:15;;;;;;;7.97;4.22;;;;;;;;;;5089034;28;20073;-64
2023/01/08 03:36:44;;;;;;;6.95;4.05;;;;;;;;;;5093031;28;20040;-64
2023/01/08 03:39:16;;;;;;;6.85;4.28;;;;;;;;;;5075501;28;20044;-64
2023/01/08 03:41:42;;;;;;;7.43;4.03;;;;;;;;;;5084448;28;20485;-64
2023/01/08 03:44:08;;;;;;;6.93;3.33;;;;;;;;;;5096138;28;20047;-64
2023/01/08 03:46:37;;;;;;;6.03;3.25;;;;;;;;;;5083830;28;20044;-64
2023/01/08 03:49:04;;;;;;;6.85;3.60;;;;;;;;;;5084958;28;20477;-64
2023/01/08 03:51:38;;;;;;;8.38;3.75;;;;;;;;;;5085733;28;20406;-64
2023/01/08 03:54:04;;;;;;;7.40;4.10;;;;;;;;;;5086813;28;20062;-64
2023/01/08 03:56:30;;;;;;;6.00;3.67;;;;;;;;;;5093416;28;20043;-64
2023/01/08 03:58:56;;;;;;;5.15;2.80;;;;;;;;;;5091312;28;20115;-64
2023/01/08 04:01:22;;;;;;;5.55;3.22;;;;;;;;;;5093488;28;20040;-64
2023/01/08 04:03:48;;;;;;;5.45;3.67;;;;;;;;;;5096471;28;20055;-64
2023/01/08 04:06:14;;;;;;;8.25;3.47;;;;;;;;;;5080572;28;20116;-64
2023/01/08 04:08:40;;;;;;;5.32;3.72;;;;;;;;;;5092768;28;20036;-64
2023/01/08 04:11:06;;;;;;;5.90;2.80;;;;;;;;;;5093337;28;20139;-65
2023/01/08 04:13:32;;;;;;;5.07;2.88;;;;;;;;;;5091225;28;20057;-64
2023/01/08 04:15:58;;;;;;;5.55;2.70;;;;;;;;;;5091995;28;20123;-64
2023/01/08 04:18:24;;;;;;;6.22;2.10;;;;;;;;;;5089991;28;20162;-64
2023/01/08 04:20:50;;;;;;;4.05;1.90;;;;;;;;;;5092057;28;20082;-64
2023/01/08 04:23:16;;;;;;;5.18;1.58;;;;;;;;;;5084823;28;20040;-64
2023/01/08 04:25:42;;;;;;;5.00;1.70;;;;;;;;;;5091985;28;20081;-64
2023/01/08 04:28:08;;;;;;;6.85;1.83;;;;;;;;;;5091883;28;20043;-64
2023/01/08 04:30:34;;;;;;;2.65;1.67;;;;;;;;;;5092791;28;20040;-64
2023/01/08 04:33:00;;;;;;;5.32;2.38;;;;;;;;;;5084435;28;20043;-64
2023/01/08 04:35:26;;;;;;;4.97;1.63;;;;;;;;;;5095484;28;20066;-64
2023/01/08 04:37:52;;;;;;;4.03;1.50;;;;;;;;;;5081223;28;20068;-64
2023/01/08 04:40:18;;;;;;;1.52;1.13;;;;;;;;;;5072216;28;20481;-64
2023/01/08 04:42:44;;;;;;;5.40;1.50;;;;;;;;;;5089942;28;20039;-64
2023/01/08 04:45:11;;;;;;;3.67;1.60;;;;;;;;;;5072120;28;20098;-64
2023/01/08 04:47:37;;;;;;;3.05;1.77;;;;;;;;;;5078244;28;20041;-64
2023/01/08 04:50:03;;;;;;;3.50;1.70;;;;;;;;;;5075824;28;20028;-64
2023/01/08 04:52:29;;;;;;;4.25;2.00;;;;;;;;;;5091379;28;20439;-63
2023/01/08 04:54:55;;;;;;;3.80;1.92;;;;;;;;;;5090198;28;20382;-63
2023/01/08 04:57:21;;;;;;;4.85;2.13;;;;;;;;;;5091206;28;20055;-63
2023/01/08 04:59:47;;;;;;;5.13;2.03;;;;;;;;;;5074826;28;20040;-63
2023/01/08 05:02:13;;;;;;;3.00;2.00;;;;;;;;;;5078297;28;20072;-63
2023/01/08 05:04:39;;;;;;;2.78;1.85;;;;;;;;;;5086660;28;20097;-63
2023/01/08 05:07:06;;;;;;;4.35;2.20;;;;;;;;;;5090420;28;20032;-63
2023/01/08 05:09:32;;;;;;;4.68;2.25;;;;;;;;;;5091330;28;20063;-63
2023/01/08 05:11:58;;;;;;;5.32;2.80;;;;;;;;;;5078458;28;20493;-63
2023/01/08 05:14:24;;;;;;;4.30;2.58;;;;;;;;;;5070936;28;20400;-63
2023/01/08 05:16:50;;;;;;;6.10;2.70;;;;;;;;;;5082762;28;20044;-64
2023/01/08 05:19:16;;;;;;;5.80;3.00;;;;;;;;;;5086787;28;20132;-63
2023/01/08 05:21:42;;;;;;;5.43;2.88;;;;;;;;;;5090066;28;20035;-63
2023/01/08 05:24:08;;;;;;;5.25;3.25;;;;;;;;;;5084327;28;20040;-64
2023/01/08 05:26:35;;;;;;;5.05;3.47;;;;;;;;;;5087212;28;20039;-63
2023/01/08 05:29:01;;;;;;;7.95;3.15;;;;;;;;;;5088834;28;20626;-63
2023/01/08 05:31:27;;;;;;;7.25;3.50;;;;;;;;;;5089433;28;20036;-63
2023/01/08 05:33:53;;;;;;;8.55;2.63;;;;;;;;;;5075334;28;20051;-63
2023/01/08 05:36:19;;;;;;;4.88;2.28;;;;;;;;;;5089339;28;20040;-63
2023/01/08 05:38:45;;;;;;;5.13;2.58;;;;;;;;;;5088669;28;20470;-63
2023/01/08 05:41:11;;;;;;;9.02;3.17;;;;;;;;;;5089006;28;20039;-64
2023/01/08 05:43:37;;;;;;;6.82;2.20;;;;;;;;;;5091201;28;20097;-63
2023/01/08 05:46:04;;;;;;;3.42;2.08;;;;;;;;;;5089629;28;20040;-63
2023/01/08 05:48:31;;;;;;;5.22;2.10;;;;;;;;;;5089650;28;20466;-63
2023/01/08 05:50:57;;;;;;;3.75;1.90;;;;;;;;;;5089301;28;20032;-63
2023/01/08 05:53:23;;;;;;;5.65;2.22;;;;;;;;;;5073244;28;20455;-63
2023/01/08 05:55:49;;;;;;;5.40;1.90;;;;;;;;;;5089847;28;20067;-63
2023/01/08 05:58:18;;;;;;;5.10;1.67;;;;;;;;;;5089143;28;20118;-63
2023/01/08 06:00:45;;;;;;;5.20;1.73;;;;;;;;;;5088244;28;20035;-63
2023/01/08 06:03:11;;;;;;;4.93;1.63;;;;;;;;;;5087519;28;20043;-63
2023/01/08 06:05:37;;;;;;;7.53;1.75;;;;;;;;;;5082644;28;20639;-63
2023/01/08 06:08:03;;;;;;;4.00;1.30;;;;;;;;;;5078148;28;20172;-63
2023/01/08 06:10:29;;;;;;;4.88;1.33;;;;;;;;;;5057385;28;20078;-63
2023/01/08 06:12:55;;;;;;;2.65;1.02;;;;;;;;;;5081537;28;20040;-63
2023/01/08 06:15:21;;;;;;;5.95;1.75;;;;;;;;;;5080069;28;20514;-63
2023/01/08 06:17:47;;;;;;;4.05;1.40;;;;;;;;;;5083672;28;20063;-63
2023/01/08 06:20:13;;;;;;;7.20;1.55;;;;;;;;;;5088599;28;20121;-63
2023/01/08 06:22:39;;;;;;;6.15;1.98;;;;;;;;;;5067780;28;20040;-63
2023/01/08 06:25:05;;;;;;;6.00;1.27;;;;;;;;;;5073438;28;20059;-64
2023/01/08 06:27:31;;;;;;;4.57;1.27;;;;;;;;;;5091221;28;20130;-64
2023/01/08 06:29:57;;;;;;;5.43;1.15;;;;;;;;;;5093729;28;20136;-64
2023/01/08 06:32:23;;;;;;;5.53;1.77;;;;;;;;;;5093011;28;20388;-64
2023/01/08 06:34:49;;;;;;;5.22;1.73;;;;;;;;;;5094191;28;20574;-63
2023/01/08 06:37:15;;;;;;;5.32;1.30;;;;;;;;;;5093779;28;20075;-63
2023/01/08 06:39:41;;;;;;;4.75;1.38;;;;;;;;;;5074839;28;20088;-64
2023/01/08 06:42:07;;;;;;;5.32;1.50;;;;;;;;;;5084718;28;20400;-64
2023/01/08 06:44:33;;;;;;;3.88;1.58;;;;;;;;;;5087408;28;20044;-64
2023/01/08 06:46:59;;;;;;;3.85;1.38;;;;;;;;;;5074024;28;20048;-64
2023/01/08 06:49:25;;;;;;;3.85;1.17;;;;;;;;;;5089460;28;20067;-64
2023/01/08 06:51:51;;;;;;;6.65;1.40;;;;;;;;;;5088679;28;20405;-64
2023/01/08 06:54:17;;;;;;;3.92;1.30;;;;;;;;;;5066008;28;20044;-64
2023/01/08 06:56:43;;;;;;;5.00;1.40;;;;;;;;;;5072540;28;20044;-64
2023/01/08 06:59:09;;;;;;;5.50;1.23;;;;;;;;;;5088596;28;20043;-64
2023/01/08 07:01:35;;;;;;;6.10;1.48;;;;;;;;;;5088153;28;20040;-64
2023/01/08 07:04:01;;;;;;;4.90;1.80;;;;;;;;;;5092285;28;20442;-64
2023/01/08 07:06:27;;;;;;;2.78;1.30;;;;;;;;;;5090260;28;20044;-64
2023/01/08 07:08:53;;;;;;;4.30;1.40;;;;;;;;;;5088920;28;20043;-63
2023/01/08 07:11:19;;;;;;;3.78;1.30;;;;;;;;;;5066682;28;20849;-64
2023/01/08 07:13:45;;;;;;;6.75;1.30;;;;;;;;;;5091807;28;20036;-63
2023/01/08 07:16:12;;;;;;;6.93;1.50;;;;;;;;;;5081946;28;20044;-64
2023/01/08 07:18:39;;;;;;;3.22;1.50;;;;;;;;;;5087805;28;20044;-64
2023/01/08 07:21:06;;;;;;;5.55;1.52;;;;;;;;;;5089447;28;20090;-64
2023/01/08 07:23:32;;;;;;;6.53;1.48;;;;;;;;;;5092353;28;20068;-64
2023/01/08 07:26:01;;;;;;;2.88;1.38;;;;;;;;;;5088647;28;20503;-64
2023/01/08 07:28:27;;;;;;;3.95;1.60;;;;;;;;;;5070496;28;20051;-64
2023/01/08 07:30:53;;;;;;;6.40;2.10;;;;;;;;;;5091053;28;20405;-64
2023/01/08 07:33:19;;;;;;;5.93;1.83;;;;;;;;;;5095973;28;20032;-64
2023/01/08 07:35:52;;;;;;;6.32;1.75;;;;;;;;;;5091624;28;20071;-64
2023/01/08 07:38:18;;;;;;;4.25;1.50;;;;;;;;;;5072708;28;20086;-64
2023/01/08 07:40:44;;;;;;;7.50;2.15;;;;;;;;;;5089372;28;20493;-64
2023/01/08 07:43:11;;;;;;;6.00;1.50;;;;;;;;;;5085575;28;20088;-64
2023/01/08 07:45:37;;;;;;;5.68;1.73;;;;;;;;;;5088266;28;20094;-64
2023/01/08 07:48:04;;;;;;;6.85;1.75;;;;;;;;;;5075461;28;20035;-64
2023/01/08 07:50:30;;;;;;;4.97;2.08;;;;;;;;;;5090049;28;20039;-64
2023/01/08 07:53:00;;;;;;;7.80;2.33;;;;;;;;;;5067944;28;20047;-64
2023/01/08 07:55:27;;;;;;;6.00;2.00;;;;;;;;;;5087260;28;20043;-64
2023/01/08 07:57:53;;;;;;;5.47;1.80;;;;;;;;;;5090848;28;20043;-64
2023/01/08 08:00:19;;;;;;;8.13;1.77;;;;;;;;;;5088388;28;20416;-64
2023/01/08 08:02:45;;;;;;;7.05;1.70;;;;;;;;;;5079725;28;20492;-63
2023/01/08 08:05:11;;;;;;;5.13;1.60;;;;;;;;;;5087031;28;20046;-64
2023/01/08 08:07:37;;;;;;;3.90;1.60;;;;;;;;;;5088022;28;20028;-64
2023/01/08 08:10:04;;;;;;;3.70;1.70;;;;;;;;;;5090328;28;20028;-63
2023/01/08 08:12:30;;;;;;;7.03;1.80;;;;;;;;;;5087207;28;20040;-64
2023/01/08 08:17:30;;;;;;;4.53;1.58;;;;;;;;;;5001880;28;20034;-68
2023/01/08 08:19:56;;;;;;;4.38;1.40;;;;;;;;;;5003008;28;20393;-68
2023/01/08 08:22:22;;;;;;;6.85;1.60;;;;;;;;;;5005572;28;20041;-68
2023/01/08 08:24:48;;;;;;;4.07;1.60;;;;;;;;;;5001361;28;20111;-68
2023/01/08 08:27:14;;;;;;;5.43;1.60;;;;;;;;;;4999335;28;20073;-68
2023/01/08 08:29:40;;;;;;;5.68;1.67;;;;;;;;;;5002672;28;20045;-67
2023/01/08 08:32:06;;;;;;;5.70;1.50;;;;;;;;;;5008353;28;20034;-68
2023/01/08 08:34:33;;;;;;;7.25;1.73;;;;;;;;;;5001273;28;20034;-68
2023/01/08 08:36:58;;;;;;;3.78;1.50;;;;;;;;;;5007291;28;20090;-68
2023/01/08 08:39:24;;;;;;;3.90;1.40;;;;;;;;;;5006568;28;20041;-68
2023/01/08 08:41:50;;;;;;;2.83;1.40;;;;;;;;;;5005871;28;20480;-68
2023/01/08 08:44:16;;;;;;;3.35;1.35;;;;;;;;;;5005637;28;20038;-68
2023/01/08 08:46:42;;;;;;;3.17;1.42;;;;;;;;;;5007448;28;20042;-68
2023/01/08 08:49:08;;;;;;;5.25;1.42;;;;;;;;;;5008402;28;20072;-68
2023/01/08 08:51:34;;;;;;;3.38;1.55;;;;;;;;;;5005424;28;20049;-67
2023/01/08 08:54:00;;;;;;;4.05;1.23;;;;;;;;;;4999642;28;20093;-68
2023/01/08 08:56:28;;;;;;;5.72;1.63;;;;;;;;;;5004661;28;20034;-68
2023/01/08 08:58:54;;;;;;;4.03;1.50;;;;;;;;;;5008966;28;20038;-67
2023/01/08 09:01:20;;;;;;;4.07;1.70;;;;;;;;;;5008688;28;20182;-68
2023/01/08 09:03:46;;;;;;;5.25;1.60;;;;;;;;;;5004908;28;20038;-68
2023/01/08 09:06:13;;;;;;;6.00;1.85;;;;;;;;;;5001311;28;20042;-68
2023/01/08 09:08:40;;;;;;;5.18;1.17;;;;;;;;;;5004135;28;20136;-68
2023/01/08 09:11:06;;;;;;;4.90;1.52;;;;;;;;;;4999808;28;20582;-69
2023/01/08 09:13:32;;;;;;;6.38;1.70;;;;;;;;;;5010268;28;20041;-68
2023/01/08 09:15:58;;;;;;;5.53;1.45;;;;;;;;;;5015051;28;20484;-67
2023/01/08 09:18:24;;;;;;;3.75;1.50;;;;;;;;;;5028890;28;20041;-68
2023/01/08 09:20:50;;;;;;;3.58;1.50;;;;;;;;;;5023775;28;20033;-67
2023/01/08 09:23:16;;;;;;;8.65;1.73;;;;;;;;;;5014979;28;20041;-67
2023/01/08 09:25:42;;;;;;;5.07;1.60;;;;;;;;;;5018203;28;20096;-68
2023/01/08 09:28:10;;;;;;;6.65;1.48;;;;;;;;;;5026747;28;20728;-68
2023/01/08 09:30:37;;;;;;;8.27;1.98;;;;;;;;;;5021799;28;20044;-68
2023/01/08 09:33:04;;;;;;;2.92;1.42;;;;;;;;;;5025224;28;20033;-67
2023/01/08 09:35:30;;;;;;;6.20;1.40;;;;;;;;;;5017216;28;20511;-67
2023/01/08 09:37:57;;;;;;;6.03;1.70;;;;;;;;;;5027246;28;20045;-67
2023/01/08 09:40:25;;;;;;;5.93;1.60;;;;;;;;;;5007575;28;20419;-67
2023/01/08 09:42:53;;;;;;;5.80;1.60;;;;;;;;;;5027768;28;20049;-67
2023/01/08 09:45:25;;;;;;;6.55;1.77;;;;;;;;;;5029880;28;20041;-68
2023/01/08 09:47:51;;;;;;;4.53;1.50;;;;;;;;;;5031142;28;20098;-68
2023/01/08 09:50:17;;;;;;;5.55;1.52;;;;;;;;;;5030544;28;20509;-68
2023/01/08 09:52:44;;;;;;;8.23;1.88;;;;;;;;;;5031038;28;20125;-68
2023/01/08 09:55:14;;;;;;;8.13;1.80;;;;;;;;;;5025187;28;20042;-68
2023/01/08 09:57:40;;;;;;;9.18;1.83;;;;;;;;;;5011266;28;20033;-68
2023/01/08 10:00:17;;;;;;;6.90;1.73;;;;;;;;;;5018453;28;20038;-68
2023/01/08 10:02:43;;;;;;;7.00;1.70;;;;;;;;;;5031320;28;20455;-68
2023/01/08 10:05:13;;;;;;;7.18;1.63;;;;;;;;;;5023757;28;20037;-67
2023/01/08 10:07:39;;;;;;;6.47;2.00;;;;;;;;;;5028896;28;20045;-68
2023/01/08 10:10:06;;;;;;;7.60;1.63;;;;;;;;;;5021622;28;20034;-68
2023/01/08 10:12:32;;;;;;;4.65;1.58;;;;;;;;;;5026952;28;20030;-68
2023/01/08 10:15:04;;;;;;;6.63;2.05;;;;;;;;;;5019568;28;20495;-68
2023/01/08 10:17:42;;;;;;;6.47;1.77;;;;;;;;;;5013720;28;20495;-67
2023/01/08 10:20:11;;;;;;;10.85;1.75;;;;;;;;;;5011328;28;20037;-67
2023/01/08 10:22:37;;;;;;;9.75;2.00;;;;;;;;;;5028099;28;20045;-67
2023/01/08 10:25:15;;;;;;;6.10;1.90;;;;;;;;;;5024376;28;20388;-68
2023/01/08 10:27:47;;;;;;;7.97;1.98;;;;;;;;;;5022846;28;20441;-67
2023/01/08 10:30:21;;;;;;;7.18;1.75;;;;;;;;;;5025590;28;20041;-68
2023/01/08 10:32:49;;;;;;;6.40;1.80;;;;;;;;;;5028491;28;20495;-67
2023/01/08 10:35:31;;;;;;;7.00;1.73;;;;;;;;;;5025017;28;20040;-67
2023/01/08 10:37:56;;;;;;;;;;;;;;;;;;5028048;28;20041;-68
2023/01/08 10:40:34;;;;;;;7.00;1.83;;;;;;;;;;5026653;28;20373;-67
2023/01/08 10:43:15;;;;;;;8.10;1.75;;;;;;;;;;5019924;28;20033;-68
2023/01/08 10:45:42;;;;;;;8.33;1.53;;;;;;;;;;5021403;28;20053;-68
2023/01/08 10:48:14;;;;;;;7.97;1.73;;;;;;;;;;5023800;28;20378;-68
2023/01/08 10:50:40;;;;;;;8.60;1.65;;;;;;;;;;5029818;28;20041;-68
2023/01/08 10:53:22;;;;;;;9.70;1.80;;;;;;;;;;5028869;28;20044;-68
2023/01/08 10:55:57;;;;;;;9.73;1.70;;;;;;;;;;5028580;28;20052;-68
2023/01/08 10:58:23;;;;;;;5.65;1.38;;;;;;;;;;5021484;28;20042;-68
2023/01/08 11:00:49;;;;;;;11.32;1.75;;;;;;;;;;5026354;28;20044;-67
2023/01/08 11:03:23;;;;;;;8.48;1.75;;;;;;;;;;5026616;28;20537;-67
2023/01/08 11:05:50;;;;;;;7.68;1.83;;;;;;;;;;5028762;28;20424;-67
2023/01/08 11:08:17;;;;;;;6.90;2.13;;;;;;;;;;5033142;28;20034;-67
2023/01/08 11:10:43;;;;;;;10.48;1.80;;;;;;;;;;5034346;28;20109;-67
2023/01/08 11:13:16;;;;;;;3.85;1.35;;;;;;;;;;5033444;28;20041;-68
2023/01/08 11:15:43;;;;;;;8.50;1.63;;;;;;;;;;5030406;28;20045;-67
2023/01/08 11:18:12;;;;;;;9.48;1.90;;;;;;;;;;5032918;28;20179;-67
2023/01/08 11:20:38;;;;;;;9.77;1.60;;;;;;;;;;5024075;28;20041;-66
2023/01/08 11:23:25;;;;;;;8.52;2.03;;;;;;;;;;5025768;28;20412;-67
2023/01/08 11:26:09;;;;;;;10.43;1.73;;;;;;;;;;5030230;28;20048;-67
2023/01/08 11:28:44;;;;;;;6.75;1.50;;;;;;;;;;5029814;28;20042;-67
2023/01/08 11:31:17;;;;;;;5.68;1.70;;;;;;;;;;5032680;28;20034;-67
2023/01/08 11:33:44;;;;;;;9.23;1.75;;;;;;;;;;5025016;28;20045;-67
2023/01/08 11:36:19;;;;;;;10.68;1.70;;;;;;;;;;5018686;28;20124;-67
2023/01/08 11:38:45;;;;;;;9.40;1.50;;;;;;;;;;5013450;28;20127;-67
2023/01/08 11:41:20;;;;;;;8.75;1.67;;;;;;;;;;5018493;28;20037;-67
2023/01/08 11:43:46;;;;;;;12.55;2.40;;;;;;;;;;5022856;28;20045;-66
2023/01/08 11:46:19;;;;;;;10.63;1.63;;;;;;;;;;5024358;28;20087;-67
2023/01/08 11:48:50;;;;;;;12.55;1.83;;;;;;;;;;5031281;28;20456;-67
2023/01/08 11:51:19;;;;;;;8.88;1.60;;;;;;;;;;5032382;28;20111;-67
2023/01/08 11:53:48;;;;;;;9.80;1.80;;;;;;;;;;5022684;28;20602;-67
2023/01/08 11:56:34;;;;;;;8.85;1.48;;;;;;;;;;5014972;28;20855;-67
2023/01/08 11:59:08;;;;;;;8.93;1.80;;;;;;;;;;5027463;28;20037;-67
2023/01/08 12:01:53;;;;;;;13.25;2.47;;;;;;;;;;5030296;28;20045;-67
2023/01/08 12:04:24;;;;;;;7.38;1.65;;;;;;;;;;5026466;28;20120;-67
2023/01/08 12:06:55;;;;;;;7.88;1.60;;;;;;;;;;5032240;28;20045;-67
2023/01/08 12:09:21;;;;;;;5.68;1.42;;;;;;;;;;5032421;28;20148;-67
2023/01/08 12:11:56;;;;;;;8.13;1.50;;;;;;;;;;5027714;28;20403;-67
2023/01/08 12:14:41;;;;;;;10.05;1.95;;;;;;;;;;5012621;28;20038;-67
2023/01/08 12:17:13;;;;;;;7.95;1.70;;;;;;;;;;5028042;28;20041;-67
2023/01/08 12:19:52;;;;;;;11.82;2.03;;;;;;;;;;5031574;28;20410;-67
2023/01/08 12:22:18;;;;;;;8.13;2.00;;;;;;;;;;5030988;28;20614;-67
2023/01/08 12:25:02;;;;;;;10.35;1.95;;;;;;;;;;5016496;28;20046;-67
2023/01/08 12:27:38;;;;;;;10.82;1.55;;;;;;;;;;5016534;28;20180;-67
2023/01/08 12:30:07;;;;;;;5.95;1.60;;;;;;;;;;5022951;28;20030;-67
2023/01/08 12:32:43;;;;;;;10.32;2.40;;;;;;;;;;5020336;28;20483;-68
2023/01/08 12:35:20;;;;;;;6.03;1.88;;;;;;;;;;5025402;28;20045;-68
2023/01/08 12:37:49;;;;;;;6.90;1.63;;;;;;;;;;5032130;28;20045;-67
2023/01/08 12:40:34;;;;;;;9.68;1.90;;;;;;;;;;5025973;28;20045;-67
2023/01/08 12:43:02;;;;;;;6.28;1.75;;;;;;;;;;5015400;28;20041;-67
2023/01/08 12:45:29;;;;;;;7.28;1.73;;;;;;;;;;5014510;28;20057;-67
2023/01/08 12:47:58;;;;;;;8.02;1.80;;;;;;;;;;5030733;28;20080;-68
2023/01/08 12:50:34;;;;;;;7.47;1.63;;;;;;;;;;5021224;28;20073;-68
2023/01/08 12:53:00;;;;;;;7.55;1.80;;;;;;;;;;5019993;28;20037;-67
2023/01/08 12:55:29;;;;;;;8.27;2.50;;;;;;;;;;5019216;28;20038;-67
2023/01/08 12:58:21;;;;;;;9.38;2.15;;;;;;;;;;5025730;28;20087;-67
2023/01/08 13:01:08;;;;;;;7.38;1.60;;;;;;;;;;4978983;28;20046;-67
2023/01/08 13:03:35;;;;;;;5.18;1.77;;;;;;;;;;5028840;28;20037;-68
2023/01/08 13:06:20;;;;;;;4.93;1.90;;;;;;;;;;5023503;28;20074;-68
2023/01/08 13:08:48;;;;;;;4.55;1.58;;;;;;;;;;5012859;28;20041;-67
2023/01/08 13:11:23;;;;;;;7.97;1.67;;;;;;;;;;5027082;28;20052;-67
2023/01/08 13:13:57;;;;;;;7.18;1.67;;;;;;;;;;5014434;28;20587;-68
2023/01/08 13:16:24;;;;;;;7.75;1.58;;;;;;;;;;5031116;28;20050;-68
2023/01/08 13:18:51;;;;;;;7.07;1.35;;;;;;;;;;5029427;28;20099;-68
2023/01/08 13:21:17;;;;;;;11.43;1.80;;;;;;;;;;5017680;28;20079;-68
2023/01/08 13:23:43;;;;;;;5.70;1.40;;;;;;;;;;5028011;28;20056;-68
2023/01/08 13:26:09;;;;;;;7.93;1.80;;;;;;;;;;5018649;28;20038;-68
2023/01/08 13:28:35;;;;;;;4.15;1.45;;;;;;;;;;5012328;28;20048;-68
2023/01/08 13:31:25;;;;;;;5.70;2.05;;;;;;;;;;5012033;28;20038;-67
2023/01/08 13:33:52;;;;;;;3.67;1.10;;;;;;;;;;5019579;28;20037;-68
2023/01/08 13:36:21;;;;;;;7.63;1.60;;;;;;;;;;5023115;28;20041;-68
2023/01/08 13:39:06;;;;;;;6.95;1.08;;;;;;;;;;5031596;28;20280;-68
2023/01/08 13:41:37;;;;;;;5.22;1.20;;;;;;;;;;5030869;28;20080;-68
2023/01/08 13:44:04;;;;;;;3.95;1.35;;;;;;;;;;5024734;28;20073;-68
2023/01/08 13:46:30;;;;;;;4.65;1.73;;;;;;;;;;5026125;28;20053;-68
2023/01/08 13:49:00;;;;;;;4.10;1.33;;;;;;;;;;5025781;28;20487;-68
2023/01/08 13:51:39;;;;;;;4.57;1.10;;;;;;;;;;5029554;28;20045;-68
2023/01/08 13:54:08;;;;;;;4.15;1.45;;;;;;;;;;5026555;28;20044;-67
2023/01/08 13:56:34;;;;;;;4.78;1.27;;;;;;;;;;5026608;28;20044;-68
2023/01/08 13:59:00;;;;;;;3.92;1.45;;;;;;;;;;5024149;28;20524;-67
2023/01/08 14:01:26;;;;;;;4.30;1.00;;;;;;;;;;5029345;28;20049;-67
2023/01/08 14:03:52;;;;;;;5.18;1.45;;;;;;;;;;5021929;28;20081;-67
2023/01/08 14:06:18;;;;;;;5.22;1.33;;;;;;;;;;5030559;28;20041;-67
2023/01/08 14:09:00;;;;;;;3.72;1.27;;;;;;;;;;5029588;28;20038;-68
2023/01/08 14:11:31;;;;;;;3.75;1.10;;;;;;;;;;5022026;28;20049;-68
2023/01/08 14:13:57;;;;;;;4.60;1.20;;;;;;;;;;5018605;28;20042;-68
2023/01/08 14:16:23;;;;;;;4.15;1.10;;;;;;;;;;5043775;23;20417;-65
2023/01/08 14:18:50;;;;;;;4.38;1.17;;;;;;;;;;5046413;28;20048;-65
2023/01/08 14:21:20;;;;;;;3.85;1.05;;;;;;;;;;5018882;28;20040;-65
2023/01/08 14:23:47;;;;;;;4.82;1.08;;;;;;;;;;5050035;28;20499;-65
2023/01/08 14:26:34;;;;;;;5.90;1.33;;;;;;;;;;5031893;28;20107;-65
2023/01/08 14:29:01;;;;;;;3.28;1.15;;;;;;;;;;5032820;28;20051;-65
2023/01/08 14:31:28;;;;;;;3.50;1.30;;;;;;;;;;5054287;28;20044;-65
2023/01/08 14:33:55;;;;;;;3.97;0.90;;;;;;;;;;5036268;28;20036;-66
2023/01/08 14:36:21;;;;;;;4.47;1.20;;;;;;;;;;5054250;28;20080;-65
2023/01/08 14:38:51;;;;;;;2.97;0.93;;;;;;;;;;5035349;28;20036;-65
2023/01/08 14:42:41;;;;;;;5.05;1.02;;;;;;;;;;5039595;28;20045;-65
2023/01/08 14:44:18;;;;;;;;;;;;;;;;;;5039022;28;20068;-65
2023/01/08 14:46:44;;;;;;;6.10;1.33;;;;;;;;;;5053182;28;20356;-65
2023/01/08 14:49:20;;;;;;;3.85;1.20;;;;;;;;;;5034084;28;20049;-65
2023/01/08 14:51:46;;;;;;;2.75;0.85;;;;;;;;;;5053213;28;20044;-65
2023/01/08 14:54:17;;;;;;;2.58;1.00;;;;;;;;;;5034751;28;20127;-65